USCMUWKE

Guest
Details From USCM - Magnitogorsk
To UWKE - Begishevo
Flight Number -
Tags Generated
Created
Modified
Stats Distance 267 nm / 495 km
Max Altitude 0 ft / 0 m
Waypoints 3
Social Downloads 0
Likes 0
Share VATSIM

Download

Looking for another format? Having issues loading an existing format? Contact us
Advertisement - Login to hide

Notes

Generated

Route

USCM UWKE UWKE

ID Type Via Altitude Latitude Longitude Leg Dist Tot Dist Heading (true) Name
O USCM APT - 0 ft / 0 m 53.37912˚ 58.74883˚ - 0 nm - -
UWKE FIX - 0 ft / 0 m 55.56333˚ 52.09500˚ 266 nm 266 nm 302° / 297° -
O UWKE APT - 0 ft / 0 m 55.55759˚ 52.07712˚ 0 nm 267 nm 240° / 240° -

Altitude Profile

Advertisement - Login to hide

Weather


0- 5 10 15 20 25 30 35+ Temperature / ° C

Clouds and Precipitation
Forecast for 2017-12-14 12:00 UTC. Updated 44 minutes ago

Ground ~20,000 ft ~40,000 ft Winds

USCM

Details ICAO USCM (MQF)
Name MAGNITOGORSK
Region Russia
Timezone Asia/Yekaterinburg (UTC+5.0)
Stats Elevation 1,431 ft / 436 m (AMSL)
Location 53.393132° 58.755661°
Runways 1
Magnetic Variation 12.521° E

METAR

USCM 140800Z 00000MPS 6000 NSC M21/M24 Q1037 R18/810260 NOSIG RMK QFE739

Decode

TAF

Not found

Departure Runways

ID Width Length Bearing (true) Bearing (mag) Surface Threshold Offset Overrun Length
01 148 ft / 45 m 10,648 ft / 3,246 m 16.20° 3.68° Concrete 0 ft / 0 m 140 ft / 43 m
19 148 ft / 45 m 10,648 ft / 3,246 m 196.21° 183.69° Concrete 0 ft / 0 m 140 ft / 43 m

UWKE

Details ICAO UWKE (NBC)
Name BEGISHEVO
Region Russia
Timezone Europe/Moscow (UTC+3.0)
Stats Elevation 643 ft / 196 m (AMSL)
Location 55.563755° 52.089791°
Runways 2
Magnetic Variation 13.599° E

METAR

UWKE 140800Z 19007G12MPS 7000 -FZRA OVC007 M04/M06 Q1025 R21/511038 NOSIG RMK OBST OBSC QFE751/1002

Decode

TAF

TAF UWKE 140445Z 1406/1506 19008G15MPS 3100 -SN BLSN OVC005 TEMPO 1406/1421 17012G19MPS 0300 +SNRA FZRA OVC003 TEMPO 1421/1506 20010G17MPS 1000 SNRA OVC003

Decode

Destination Runways

ID Width Length Bearing (true) Bearing (mag) Surface Threshold Offset Overrun Length
03 190 ft / 58 m 5,609 ft / 1,710 m 47.09° 33.49° Grass 0 ft / 0 m 0 ft / 0 m
04 138 ft / 42 m 8,149 ft / 2,484 m 46.89° 33.29° Asphalt 0 ft / 0 m 170 ft / 52 m
21 190 ft / 58 m 5,609 ft / 1,710 m 227.11° 213.51° Grass 0 ft / 0 m 0 ft / 0 m
22 138 ft / 42 m 8,149 ft / 2,484 m 226.91° 213.31° Asphalt 0 ft / 0 m 190 ft / 58 m

Approach Navaids

Runway Type Ident Frequency Range Bearing (true) Bearing (mag) Slope Elevation
22 Localiser INK 109.90 MHz 18 nm / 33 km 226.51° 212.91° - 643 ft / 196 m (AMSL)
22 Glidescope INK 109.90 MHz 10 nm / 19 km 226.90° 213.30° 2.70° 643 ft / 196 m (AMSL)